Time;durP1;ratioP1;P1;durP2;ratioP2;P2;SDS_P1;SDS_P2;PMS_P1;PMS_P2;Temp;Humidity;BMP_temperature;BMP_pressure;BME280_temperature;BME280_humidity;BME280_pressure;Samples;Min_cycle;Max_cycle;Signal;HPM_P1;HPM_P2
2022/07/02 00:01:21;;;;;;;6.80;4.05;;;20.20;71.90;;;;;;5073868;28;20025;-17
2022/07/02 00:03:53;;;;;;;5.80;3.92;;;20.20;72.00;;;;;;5073924;28;20036;-17
2022/07/02 00:06:21;;;;;;;5.70;4.05;;;20.10;72.10;;;;;;5073094;28;20100;-17
2022/07/02 00:08:47;;;;;;;8.77;4.30;;;20.10;72.30;;;;;;5073908;28;20028;-18
2022/07/02 00:11:17;;;;;;;7.90;3.78;;;20.00;72.40;;;;;;5073845;28;20035;-16
2022/07/02 00:13:43;;;;;;;5.30;3.83;;;20.00;72.40;;;;;;5074303;28;20036;-18
2022/07/02 00:16:11;;;;;;;7.70;4.00;;;20.00;72.50;;;;;;5073744;28;20029;-17
2022/07/02 00:18:38;;;;;;;5.43;4.10;;;20.00;72.50;;;;;;5073564;28;20101;-18
2022/07/02 00:21:04;;;;;;;11.43;5.10;;;20.00;72.60;;;;;;5073331;28;20028;-17
2022/07/02 00:23:30;;;;;;;7.35;3.67;;;19.90;72.80;;;;;;5073255;28;20056;-17
2022/07/02 00:26:14;;;;;;;8.57;4.55;;;19.90;72.80;;;;;;5073564;28;20109;-18
2022/07/02 00:28:42;;;;;;;6.43;4.03;;;19.90;72.80;;;;;;5072272;28;20035;-16
2022/07/02 00:31:08;;;;;;;7.40;4.80;;;19.90;72.80;;;;;;5072059;28;20025;-17
2022/07/02 00:33:35;;;;;;;6.03;3.80;;;19.90;72.90;;;;;;5073532;28;20063;-17
2022/07/02 00:36:03;;;;;;;8.68;4.78;;;19.90;72.90;;;;;;5073190;28;20035;-17
2022/07/02 00:38:29;;;;;;;8.13;4.50;;;19.90;73.00;;;;;;5073127;28;20032;-16
2022/07/02 00:40:56;;;;;;;8.30;4.28;;;19.90;72.90;;;;;;5073179;28;20098;-16
2022/07/02 00:43:23;;;;;;;10.20;5.72;;;19.80;72.80;;;;;;5073124;28;20116;-17
2022/07/02 00:45:51;;;;;;;8.52;4.35;;;19.80;72.90;;;;;;5073924;28;20067;-17
2022/07/02 00:48:17;;;;;;;7.95;4.82;;;19.90;72.80;;;;;;5072878;28;20036;-17
2022/07/02 00:50:43;;;;;;;7.70;4.80;;;19.80;72.80;;;;;;5073301;28;20132;-16
2022/07/02 00:53:09;;;;;;;8.45;4.53;;;19.90;72.60;;;;;;5072868;28;20560;-17
2022/07/02 00:55:34;;;;;;;7.97;4.43;;;19.90;72.60;;;;;;5072956;28;20034;-16
2022/07/02 00:58:04;;;;;;;8.05;4.85;;;19.90;72.50;;;;;;5073108;28;20028;-17
2022/07/02 01:00:30;;;;;;;8.57;4.97;;;19.90;72.40;;;;;;5072874;28;20024;-18
2022/07/02 01:02:59;;;;;;;9.07;4.30;;;19.90;72.30;;;;;;5072772;28;20373;-17
2022/07/02 01:05:25;;;;;;;13.50;5.97;;;19.90;72.30;;;;;;5073096;28;20357;-17
2022/07/02 01:10:56;;;;;;;9.85;5.32;;;19.90;72.20;;;;;;4991828;28;20034;-18
2022/07/02 01:13:22;;;;;;;9.02;4.90;;;19.90;72.00;;;;;;4991568;28;20033;-17
2022/07/02 01:15:48;;;;;;;7.90;4.60;;;19.90;71.90;;;;;;5029676;28;20408;-17
2022/07/02 01:18:17;;;;;;;9.90;4.85;;;19.90;71.90;;;;;;5073642;28;20031;-17
2022/07/02 01:20:44;;;;;;;6.82;4.30;;;19.90;71.90;;;;;;5076798;28;20060;-16
2022/07/02 01:23:10;;;;;;;9.82;4.90;;;19.90;71.90;;;;;;5076985;28;20533;-16
2022/07/02 01:25:36;;;;;;;11.18;5.75;;;19.90;72.00;;;;;;5076838;28;20099;-16
2022/07/02 01:28:02;;;;;;;7.32;5.25;;;19.90;72.00;;;;;;5076607;28;20163;-19
2022/07/02 01:30:29;;;;;;;7.85;5.40;;;19.80;72.10;;;;;;5076512;28;20025;-17
2022/07/02 01:32:55;;;;;;;6.32;4.30;;;19.80;72.20;;;;;;5077132;28;20493;-18
2022/07/02 01:35:21;;;;;;;6.80;4.20;;;19.70;72.30;;;;;;5076465;28;20494;-16
2022/07/02 01:37:52;;;;;;;7.70;4.63;;;19.70;72.30;;;;;;5076339;28;20020;-18
2022/07/02 01:40:18;;;;;;;6.20;3.97;;;19.70;72.30;;;;;;5076645;28;20046;-16
2022/07/02 01:42:45;;;;;;;7.65;5.28;;;19.70;72.20;;;;;;5076674;28;20548;-18
2022/07/02 01:45:11;;;;;;;5.65;4.05;;;19.70;72.40;;;;;;5074982;28;20062;-18
2022/07/02 01:47:37;;;;;;;8.48;4.13;;;19.70;72.40;;;;;;5076242;28;20052;-17
2022/07/02 01:50:03;;;;;;;7.82;4.10;;;19.60;72.60;;;;;;5076025;28;20076;-17
2022/07/02 01:52:29;;;;;;;8.10;4.20;;;19.60;72.70;;;;;;5075950;28;20048;-16
2022/07/02 01:54:55;;;;;;;9.10;4.40;;;19.50;72.80;;;;;;5075918;28;20388;-16
2022/07/02 01:57:20;;;;;;;8.60;4.25;;;19.50;72.70;;;;;;5076023;28;20089;-17
2022/07/02 01:59:46;;;;;;;8.07;4.50;;;19.50;72.70;;;;;;5076054;28;20020;-17
2022/07/02 02:02:12;;;;;;;9.90;4.32;;;19.50;72.70;;;;;;5076202;28;20127;-18
2022/07/02 02:04:39;;;;;;;6.82;3.92;;;19.40;72.70;;;;;;5075676;28;20489;-17
2022/07/02 02:07:05;;;;;;;7.30;4.43;;;19.40;72.70;;;;;;5075841;28;20039;-17
2022/07/02 02:09:31;;;;;;;5.63;4.20;;;19.40;72.80;;;;;;5075761;28;20067;-16
2022/07/02 02:11:58;;;;;;;8.20;4.10;;;19.40;72.70;;;;;;5076887;28;20025;-17
2022/07/02 02:14:24;;;;;;;7.78;4.55;;;19.40;72.80;;;;;;5075926;28;20024;-16
2022/07/02 02:16:51;;;;;;;4.28;3.35;;;19.40;72.70;;;;;;5075997;28;20078;-15
2022/07/02 02:19:17;;;;;;;4.70;3.50;;;19.40;72.70;;;;;;5075970;28;20380;-16
2022/07/02 02:21:43;;;;;;;7.15;4.00;;;19.40;72.60;;;;;;5074264;28;20480;-16
2022/07/02 02:24:09;;;;;;;6.10;3.65;;;19.40;72.70;;;;;;5075898;28;20067;-16
2022/07/02 02:26:35;;;;;;;6.63;4.60;;;19.30;72.80;;;;;;5075645;28;20040;-16
2022/07/02 02:29:01;;;;;;;6.22;4.53;;;19.30;73.00;;;;;;5074967;28;20398;-16
2022/07/02 02:31:27;;;;;;;8.45;5.68;;;19.20;73.10;;;;;;5074238;28;20110;-17
2022/07/02 02:33:53;;;;;;;8.05;4.45;;;19.10;73.20;;;;;;5074160;28;20602;-17
2022/07/02 02:36:19;;;;;;;8.80;5.18;;;19.10;73.40;;;;;;5073878;28;20123;-16
2022/07/02 02:38:48;;;;;;;6.22;3.88;;;19.00;73.50;;;;;;5073973;28;20028;-18
2022/07/02 02:41:14;;;;;;;6.63;4.30;;;19.10;73.60;;;;;;5075419;28;20032;-17
2022/07/02 02:43:41;;;;;;;9.20;4.72;;;19.00;73.80;;;;;;5075257;28;20150;-18
2022/07/02 02:46:07;;;;;;;7.13;4.28;;;19.00;74.00;;;;;;5075483;28;20060;-18
2022/07/02 02:48:35;;;;;;;5.53;4.20;;;19.00;74.00;;;;;;5074914;28;20063;-17
2022/07/02 02:51:01;;;;;;;7.40;4.63;;;18.90;74.00;;;;;;5075081;28;20029;-16
2022/07/02 02:53:27;;;;;;;6.15;4.00;;;18.90;74.10;;;;;;5074935;28;20032;-17
2022/07/02 02:55:53;;;;;;;6.63;4.10;;;18.90;74.20;;;;;;5074894;28;20031;-18
2022/07/02 02:58:19;;;;;;;6.82;4.10;;;18.90;74.40;;;;;;5074999;28;20107;-17
2022/07/02 03:00:45;;;;;;;7.07;3.97;;;18.80;74.40;;;;;;5074829;28;20381;-16
2022/07/02 03:03:11;;;;;;;6.00;3.70;;;18.80;74.40;;;;;;5074804;28;20028;-16
2022/07/02 03:05:37;;;;;;;7.47;4.20;;;18.80;74.60;;;;;;5075112;28;20070;-16
2022/07/02 03:08:03;;;;;;;6.82;4.20;;;18.70;74.70;;;;;;5074865;28;20025;-18
2022/07/02 03:10:29;;;;;;;6.82;3.90;;;18.70;74.80;;;;;;5074485;28;20033;-18
2022/07/02 03:12:55;;;;;;;6.65;3.72;;;18.70;74.90;;;;;;5074644;28;20020;-18
2022/07/02 03:15:21;;;;;;;7.25;4.18;;;18.60;74.80;;;;;;5074893;28;20032;-16
2022/07/02 03:17:47;;;;;;;7.82;4.30;;;18.60;74.80;;;;;;5074447;28;20047;-15
2022/07/02 03:20:13;;;;;;;6.78;3.88;;;18.60;74.90;;;;;;5073247;28;20024;-16
2022/07/02 03:22:39;;;;;;;10.45;5.07;;;18.50;75.20;;;;;;5074581;28;20036;-16
2022/07/02 03:25:06;;;;;;;8.02;5.20;;;18.50;75.30;;;;;;5074537;28;20025;-16
2022/07/02 03:27:32;;;;;;;7.70;4.57;;;18.50;75.60;;;;;;5074644;28;20051;-16
2022/07/02 03:29:58;;;;;;;9.73;4.80;;;18.40;75.70;;;;;;5074535;28;20492;-18
2022/07/02 03:32:25;;;;;;;6.13;4.10;;;18.40;75.60;;;;;;5072801;28;20046;-18
2022/07/02 03:34:55;;;;;;;7.07;4.50;;;18.40;75.70;;;;;;5074292;28;20029;-17
2022/07/02 03:37:23;;;;;;;7.03;4.10;;;18.40;75.70;;;;;;5074491;28;20024;-17
2022/07/02 03:39:49;;;;;;;8.10;4.70;;;18.40;75.90;;;;;;5073185;28;20115;-17
2022/07/02 03:42:15;;;;;;;8.32;4.80;;;18.30;75.90;;;;;;5072917;28;20031;-16
2022/07/02 03:44:40;;;;;;;10.27;5.15;;;18.40;75.90;;;;;;5074354;28;20020;-18
2022/07/02 03:47:06;;;;;;;6.90;5.22;;;18.30;76.00;;;;;;5074174;28;20527;-17
2022/07/02 03:49:32;;;;;;;8.88;4.90;;;18.40;76.10;;;;;;5070067;28;20052;-17
2022/07/02 03:51:58;;;;;;;10.68;5.28;;;18.40;76.10;;;;;;5074672;28;20024;-18
2022/07/02 03:54:24;;;;;;;10.70;5.30;;;18.40;76.10;;;;;;5072253;28;20502;-16
2022/07/02 03:56:50;;;;;;;7.40;4.50;;;18.40;76.00;;;;;;5074095;28;20492;-18
2022/07/02 03:59:16;;;;;;;10.30;4.55;;;18.40;76.10;;;;;;5073678;28;20028;-17
2022/07/02 04:01:42;;;;;;;8.32;4.22;;;18.50;76.20;;;;;;5073564;28;20439;-18
2022/07/02 04:04:08;;;;;;;6.85;4.20;;;18.50;76.10;;;;;;5073582;28;20028;-18
2022/07/02 04:06:34;;;;;;;6.47;4.88;;;18.40;76.10;;;;;;5073424;28;20042;-18
2022/07/02 04:09:00;;;;;;;5.97;4.40;;;18.40;76.40;;;;;;5074034;28;20074;-18
2022/07/02 04:11:25;;;;;;;8.27;5.10;;;18.50;76.50;;;;;;5073539;28;20174;-17
2022/07/02 04:13:51;;;;;;;9.27;5.20;;;18.50;76.60;;;;;;5073786;28;20059;-17
2022/07/02 04:16:20;;;;;;;15.80;6.10;;;18.50;76.30;;;;;;5073438;28;20361;-18
2022/07/02 04:18:46;;;;;;;9.25;4.63;;;18.60;76.40;;;;;;5073379;28;20052;-17
2022/07/02 04:21:13;;;;;;;7.60;4.57;;;18.60;76.50;;;;;;5073836;28;20021;-17
2022/07/02 04:23:39;;;;;;;8.57;5.05;;;18.70;76.30;;;;;;5073461;28;20028;-18
2022/07/02 04:26:05;;;;;;;8.38;5.30;;;18.70;76.40;;;;;;5073263;28;20073;-17
2022/07/02 04:28:32;;;;;;;7.63;4.82;;;18.80;77.30;;;;;;5073166;28;20502;-16
2022/07/02 04:30:58;;;;;;;7.63;4.93;;;18.80;76.60;;;;;;5073714;28;20032;-16
2022/07/02 04:33:24;;;;;;;9.35;5.43;;;18.90;76.50;;;;;;5073279;28;20023;-16
2022/07/02 04:35:50;;;;;;;8.20;4.88;;;18.90;76.50;;;;;;5073499;28;20483;-16
2022/07/02 04:38:17;;;;;;;7.30;4.88;;;19.00;76.20;;;;;;5073291;28;20476;-16
2022/07/02 04:40:43;;;;;;;8.75;4.97;;;19.10;76.10;;;;;;5073385;28;20093;-17
2022/07/02 04:43:09;;;;;;;10.05;5.75;;;19.20;76.00;;;;;;5072983;28;20036;-16
2022/07/02 04:45:35;;;;;;;12.35;6.13;;;19.40;76.00;;;;;;5073411;28;20028;-16
2022/07/02 04:48:01;;;;;;;9.00;5.68;;;19.40;75.60;;;;;;5073264;28;20111;-17
2022/07/02 04:50:27;;;;;;;16.50;6.28;;;19.50;75.70;;;;;;5072678;28;20080;-18
2022/07/02 04:52:53;;;;;;;9.05;5.22;;;19.70;75.60;;;;;;5072727;28;20023;-17
2022/07/02 04:55:18;;;;;;;9.23;5.82;;;19.80;75.40;;;;;;5073156;28;20116;-17
2022/07/02 04:57:45;;;;;;;6.65;4.72;;;19.90;74.90;;;;;;5072958;28;20108;-16
2022/07/02 05:00:12;;;;;;;9.10;5.53;;;20.00;74.60;;;;;;5073802;28;20063;-16
2022/07/02 05:02:38;;;;;;;8.38;5.07;;;20.20;74.90;;;;;;5072616;28;20507;-16
2022/07/02 05:05:04;;;;;;;8.35;5.45;;;20.30;74.40;;;;;;5073472;28;20115;-16
2022/07/02 05:07:31;;;;;;;9.93;5.63;;;20.40;74.00;;;;;;5072909;28;20040;-16
2022/07/02 05:09:58;;;;;;;14.05;6.70;;;20.60;73.60;;;;;;5073083;28;20107;-16
2022/07/02 05:12:25;;;;;;;7.18;4.93;;;20.70;73.30;;;;;;5072922;28;20025;-16
2022/07/02 05:14:51;;;;;;;8.57;5.93;;;20.80;72.60;;;;;;5072799;28;20025;-17
2022/07/02 05:17:17;;;;;;;11.93;6.90;;;20.90;72.50;;;;;;5073100;28;20029;-17
2022/07/02 05:19:44;;;;;;;10.68;5.40;;;21.10;72.50;;;;;;5073372;28;20036;-17
2022/07/02 05:22:10;;;;;;;8.75;5.40;;;21.20;71.90;;;;;;5072537;28;20055;-16
2022/07/02 05:24:36;;;;;;;7.80;5.40;;;21.40;71.60;;;;;;5071279;28;20465;-18
2022/07/02 05:27:03;;;;;;;10.98;5.50;;;21.50;71.50;;;;;;5072697;28;20531;-15
2022/07/02 05:29:29;;;;;;;9.23;6.00;;;21.60;71.20;;;;;;5072992;28;20021;-17
2022/07/02 05:31:55;;;;;;;10.80;5.40;;;21.70;71.00;;;;;;5072830;28;20029;-16
2022/07/02 05:34:21;;;;;;;8.85;5.43;;;21.90;70.70;;;;;;5073272;28;20092;-18
2022/07/02 05:36:47;;;;;;;9.38;5.32;;;22.00;70.00;;;;;;5072876;28;20033;-17
2022/07/02 05:39:13;;;;;;;10.50;5.07;;;22.20;69.70;;;;;;5072798;28;20167;-15
2022/07/02 05:41:39;;;;;;;6.40;4.57;;;22.40;69.40;;;;;;5072478;28;20396;-17
2022/07/02 05:44:05;;;;;;;9.20;4.80;;;22.50;69.30;;;;;;5072572;28;20020;-18
2022/07/02 05:46:31;;;;;;;8.10;4.80;;;22.60;68.80;;;;;;5072292;28;20531;-16
2022/07/02 05:48:57;;;;;;;7.82;4.63;;;22.80;68.40;;;;;;5072237;28;20135;-17
2022/07/02 05:51:23;;;;;;;7.95;4.00;;;22.90;67.80;;;;;;5072510;28;20425;-18
2022/07/02 05:53:49;;;;;;;7.07;3.90;;;23.00;67.60;;;;;;5071273;28;20028;-17
2022/07/02 05:56:15;;;;;;;11.80;5.32;;;23.20;67.30;;;;;;5072295;28;20115;-17
2022/07/02 05:58:41;;;;;;;11.70;5.40;;;23.40;67.00;;;;;;5073510;28;20090;-16
2022/07/02 06:01:07;;;;;;;9.07;4.50;;;23.50;66.50;;;;;;5072366;28;20392;-17
2022/07/02 06:03:33;;;;;;;7.40;4.22;;;23.60;66.20;;;;;;5071020;28;20036;-16
2022/07/02 06:08:44;;;;;;;7.40;4.35;;;23.80;65.60;;;;;;5076164;28;20439;-17
2022/07/02 06:11:11;;;;;;;9.27;4.55;;;23.90;65.60;;;;;;5075833;28;20068;-17
2022/07/02 06:13:37;;;;;;;8.35;4.05;;;24.00;65.50;;;;;;5075801;28;20048;-17
2022/07/02 06:16:03;;;;;;;6.13;3.97;;;24.20;65.20;;;;;;5075925;28;20043;-16
2022/07/02 06:18:29;;;;;;;12.00;4.53;;;24.30;64.60;;;;;;5075829;28;20094;-16
2022/07/02 06:20:55;;;;;;;6.97;3.88;;;24.50;63.90;;;;;;5075957;28;20464;-16
2022/07/02 06:23:21;;;;;;;8.43;3.95;;;24.60;63.60;;;;;;5075762;28;20115;-15
2022/07/02 06:25:48;;;;;;;6.65;3.75;;;24.80;63.00;;;;;;5075911;28;20131;-15
2022/07/02 06:28:15;;;;;;;8.18;4.00;;;24.90;62.70;;;;;;5075332;28;20032;-19
2022/07/02 06:30:41;;;;;;;7.47;3.42;;;25.00;62.20;;;;;;5075767;28;20111;-16
2022/07/02 06:33:07;;;;;;;6.32;3.85;;;25.10;61.90;;;;;;5075419;28;20103;-15
2022/07/02 06:35:33;;;;;;;7.68;3.25;;;25.30;61.80;;;;;;5074119;28;20074;-16
2022/07/02 06:37:59;;;;;;;4.15;2.95;;;25.40;61.20;;;;;;5075671;28;20059;-16
2022/07/02 06:40:26;;;;;;;9.15;3.80;;;25.50;60.90;;;;;;5075047;28;20036;-16
2022/07/02 06:42:51;;;;;;;6.55;3.80;;;25.70;60.20;;;;;;5075514;28;20108;-16
2022/07/02 06:45:17;;;;;;;5.18;3.60;;;25.90;59.60;;;;;;5075168;28;20103;-16
2022/07/02 06:47:43;;;;;;;6.00;3.10;;;26.00;58.80;;;;;;5075121;28;20025;-18
2022/07/02 06:50:11;;;;;;;4.72;3.00;;;26.20;58.50;;;;;;5075123;28;20044;-17
2022/07/02 06:52:37;;;;;;;7.05;3.42;;;26.40;57.90;;;;;;5074939;28;20498;-17
2022/07/02 06:55:04;;;;;;;10.13;3.35;;;26.50;57.70;;;;;;5075122;28;20035;-17
2022/07/02 06:57:30;;;;;;;7.32;3.30;;;26.70;57.20;;;;;;5074994;28;20036;-17
2022/07/02 06:59:56;;;;;;;8.57;3.55;;;26.90;55.50;;;;;;5075059;28;20032;-16
2022/07/02 07:02:23;;;;;;;5.97;3.50;;;27.00;55.20;;;;;;5074902;28;20075;-16
2022/07/02 07:04:49;;;;;;;5.00;3.13;;;27.20;54.90;;;;;;5075160;28;20029;-16
2022/07/02 07:07:16;;;;;;;4.63;3.05;;;27.30;53.80;;;;;;5073515;28;20117;-16
2022/07/02 07:09:42;;;;;;;6.13;3.13;;;27.40;53.40;;;;;;5074654;28;20504;-16
2022/07/02 07:12:09;;;;;;;8.57;3.50;;;27.60;53.60;;;;;;5075200;28;20112;-16
2022/07/02 07:14:35;;;;;;;5.95;3.05;;;27.80;51.50;;;;;;5074709;28;20033;-16
2022/07/02 07:17:01;;;;;;;9.27;3.50;;;28.10;49.70;;;;;;5075119;28;20110;-15
2022/07/02 07:19:27;;;;;;;8.05;3.33;;;28.40;48.60;;;;;;5074840;28;20020;-16
2022/07/02 07:21:53;;;;;;;8.65;3.30;;;28.50;48.60;;;;;;5074560;28;20423;-16
2022/07/02 07:24:20;;;;;;;5.47;3.10;;;28.70;49.20;;;;;;5074357;28;20051;-16
2022/07/02 07:26:46;;;;;;;7.13;3.05;;;28.90;47.40;;;;;;5074803;28;20043;-16
2022/07/02 07:29:12;;;;;;;7.55;3.42;;;29.10;47.80;;;;;;5074654;28;20454;-16
2022/07/02 07:31:38;;;;;;;6.45;3.20;;;29.30;46.80;;;;;;5074984;28;20066;-16
2022/07/02 07:34:05;;;;;;;8.60;3.40;;;29.40;46.60;;;;;;5074208;28;20055;-16
2022/07/02 07:36:31;;;;;;;9.15;3.03;;;29.60;46.30;;;;;;5074001;28;20028;-15
2022/07/02 07:38:57;;;;;;;5.70;3.25;;;29.70;46.00;;;;;;5074353;28;20075;-15
2022/07/02 07:41:23;;;;;;;9.07;3.50;;;30.00;44.90;;;;;;5074339;28;20036;-17
2022/07/02 07:43:51;;;;;;;9.32;3.30;;;30.10;44.20;;;;;;5074203;28;20029;-16
2022/07/02 07:46:19;;;;;;;8.10;3.60;;;30.10;45.90;;;;;;5073899;28;20368;-16
2022/07/02 07:48:45;;;;;;;8.13;3.50;;;30.20;45.80;;;;;;5074236;28;20063;-16
2022/07/02 07:51:12;;;;;;;8.98;3.50;;;30.30;45.60;;;;;;5074168;28;20074;-16
2022/07/02 07:53:38;;;;;;;8.85;3.50;;;30.40;46.30;;;;;;5074126;28;20070;-15
2022/07/02 07:56:05;;;;;;;10.40;4.00;;;30.60;45.40;;;;;;5072556;28;20028;-15
2022/07/02 07:58:33;;;;;;;7.75;3.30;;;30.80;44.70;;;;;;5073613;28;20419;-15
2022/07/02 08:01:00;;;;;;;7.22;3.40;;;31.00;44.50;;;;;;5073711;28;20024;-15
2022/07/02 08:03:25;;;;;;;11.23;3.65;;;31.20;43.20;;;;;;5073532;28;20048;-16
2022/07/02 08:05:54;;;;;;;8.73;3.35;;;31.30;43.10;;;;;;5073950;28;20034;-14
2022/07/02 08:08:21;;;;;;;9.38;3.15;;;31.50;43.20;;;;;;5073256;28;20036;-15
2022/07/02 08:10:47;;;;;;;6.65;3.65;;;31.70;42.60;;;;;;5073900;28;20024;-16
2022/07/02 08:13:13;;;;;;;9.65;3.67;;;31.90;41.20;;;;;;5073530;28;20025;-17
2022/07/02 08:15:39;;;;;;;7.75;3.70;;;31.90;41.90;;;;;;5073471;28;20028;-16
2022/07/02 08:18:05;;;;;;;9.65;3.53;;;32.10;41.40;;;;;;5073714;28;20028;-16
2022/07/02 08:20:31;;;;;;;9.93;3.65;;;32.30;40.50;;;;;;5073117;28;20407;-15
2022/07/02 08:22:58;;;;;;;7.95;3.60;;;32.40;40.80;;;;;;5073204;28;20028;-16
2022/07/02 08:25:24;;;;;;;7.53;3.45;;;32.70;40.90;;;;;;5073566;28;20082;-16
2022/07/02 08:27:50;;;;;;;10.48;3.83;;;32.90;40.80;;;;;;5072789;28;20028;-15
2022/07/02 08:30:16;;;;;;;13.38;4.25;;;33.20;40.40;;;;;;5072088;28;20024;-16
2022/07/02 08:32:42;;;;;;;7.85;3.33;;;33.40;38.50;;;;;;5073542;28;20025;-16
2022/07/02 08:35:09;;;;;;;11.93;4.10;;;33.50;39.40;;;;;;5073612;28;20048;-15
2022/07/02 08:37:35;;;;;;;9.07;3.90;;;33.60;39.30;;;;;;5073554;28;20025;-15
2022/07/02 08:40:00;;;;;;;9.02;3.50;;;33.70;38.40;;;;;;5073388;28;20032;-15
2022/07/02 08:42:29;;;;;;;8.85;3.65;;;33.80;38.90;;;;;;5072886;28;20039;-16
2022/07/02 08:45:00;;;;;;;8.25;3.85;;;33.90;38.20;;;;;;5073153;28;20020;-15
2022/07/02 08:47:27;;;;;;;13.93;3.83;;;33.90;38.60;;;;;;5073152;28;20024;-16
2022/07/02 08:49:59;;;;;;;11.88;3.75;;;34.00;38.50;;;;;;5071697;28;20052;-16
2022/07/02 08:52:27;;;;;;;8.93;4.00;;;34.20;38.10;;;;;;5072856;28;20537;-15
2022/07/02 08:54:54;;;;;;;12.07;3.63;;;34.30;37.40;;;;;;5073285;28;20476;-15
2022/07/02 08:57:22;;;;;;;11.10;3.30;;;34.30;37.60;;;;;;5073037;28;20540;-15
2022/07/02 08:59:48;;;;;;;13.55;3.78;;;34.50;38.00;;;;;;5073117;28;20035;-15
2022/07/02 09:02:15;;;;;;;10.20;3.97;;;34.70;37.10;;;;;;5073208;28;20041;-15
2022/07/02 09:04:47;;;;;;;8.18;3.55;;;35.00;37.00;;;;;;5073253;28;20032;-15
2022/07/02 09:07:15;;;;;;;10.30;3.78;;;35.20;36.20;;;;;;5072976;28;20361;-17
2022/07/02 09:09:42;;;;;;;11.90;4.18;;;35.40;36.40;;;;;;5073154;28;20032;-15
2022/07/02 09:12:13;;;;;;;9.93;3.67;;;35.50;36.30;;;;;;5072918;28;20031;-16
2022/07/02 09:14:41;;;;;;;9.63;3.83;;;35.70;36.20;;;;;;5073225;28;20052;-15
2022/07/02 09:17:08;;;;;;;13.15;3.72;;;35.90;35.70;;;;;;5073110;28;20033;-16
2022/07/02 09:19:35;;;;;;;8.77;3.58;;;36.10;35.50;;;;;;5073126;28;20039;-14
2022/07/02 09:22:02;;;;;;;6.32;3.38;;;36.00;34.90;;;;;;5072989;28;20040;-15
2022/07/02 09:24:32;;;;;;;10.27;3.92;;;36.20;35.00;;;;;;5072522;28;20016;-16
2022/07/02 09:27:02;;;;;;;11.45;3.70;;;36.40;34.10;;;;;;5073620;28;20056;-16
2022/07/02 09:29:29;;;;;;;12.02;3.65;;;36.50;34.50;;;;;;5072775;28;20078;-15
2022/07/02 09:31:55;;;;;;;11.52;3.67;;;36.70;34.20;;;;;;5072685;28;20032;-14
2022/07/02 09:34:27;;;;;;;9.05;3.70;;;36.70;34.60;;;;;;5072738;28;20116;-15
2022/07/02 09:36:54;;;;;;;7.47;3.47;;;36.80;32.40;;;;;;5072967;28;20028;-15
2022/07/02 09:39:30;;;;;;;9.52;3.42;;;36.90;33.80;;;;;;5073448;28;20036;-15
2022/07/02 09:41:58;;;;;;;6.68;3.30;;;36.90;33.00;;;;;;5076321;28;20028;-17
2022/07/02 09:44:28;;;;;;;6.25;3.10;;;37.20;33.00;;;;;;5076784;28;20027;-16
2022/07/02 09:46:54;;;;;;;7.72;3.15;;;37.50;32.70;;;;;;5076362;28;20051;-16
2022/07/02 09:49:20;;;;;;;7.78;3.35;;;37.70;32.70;;;;;;5076394;28;20048;-16
2022/07/02 09:51:53;;;;;;;11.65;3.70;;;37.80;32.50;;;;;;5076197;28;20134;-15
2022/07/02 09:54:24;;;;;;;10.32;3.40;;;38.00;31.30;;;;;;5075975;28;20024;-16
2022/07/02 09:56:55;;;;;;;6.70;3.33;;;38.00;31.90;;;;;;5076597;28;20166;-14
2022/07/02 09:59:22;;;;;;;9.93;3.80;;;37.80;32.10;;;;;;5076161;28;20469;-15
2022/07/02 10:01:49;;;;;;;9.70;4.00;;;37.80;32.20;;;;;;5075904;28;20491;-15
2022/07/02 10:04:15;;;;;;;9.70;3.60;;;37.90;31.80;;;;;;5076069;28;20043;-16
2022/07/02 10:06:44;;;;;;;10.02;3.40;;;38.00;31.80;;;;;;5076219;28;20024;-15
2022/07/02 10:09:12;;;;;;;9.60;3.90;;;38.20;31.90;;;;;;5076098;28;20021;-14
2022/07/02 10:11:38;;;;;;;9.40;3.50;;;38.30;30.20;;;;;;5076141;28;20024;-14
2022/07/02 10:14:05;;;;;;;8.43;3.58;;;38.40;31.10;;;;;;5075898;28;20480;-15
2022/07/02 10:16:32;;;;;;;11.90;3.45;;;38.50;31.50;;;;;;5075571;28;20104;-15
2022/07/02 10:19:00;;;;;;;9.80;3.63;;;38.80;31.10;;;;;;5075708;28;20484;-15
2022/07/02 10:21:28;;;;;;;9.57;3.55;;;38.90;31.00;;;;;;5074436;28;20032;-15
2022/07/02 10:23:56;;;;;;;9.05;3.78;;;39.00;30.70;;;;;;5075776;28;20131;-16
2022/07/02 10:26:24;;;;;;;13.20;3.63;;;39.10;30.80;;;;;;5075566;28;20099;-16
2022/07/02 10:28:53;;;;;;;8.43;3.15;;;39.00;30.20;;;;;;5074911;28;20032;-14
2022/07/02 10:31:19;;;;;;;7.47;3.10;;;39.10;30.70;;;;;;5076047;28;20507;-16
2022/07/02 10:33:58;;;;;;;10.10;3.78;;;39.30;30.90;;;;;;5075457;28;20059;-15
2022/07/02 10:36:25;;;;;;;7.55;3.45;;;39.50;30.80;;;;;;5075640;28;20028;-15
2022/07/02 10:38:59;;;;;;;6.55;3.17;;;39.50;29.60;;;;;;5075327;28;20569;-15
2022/07/02 10:41:29;;;;;;;7.97;3.30;;;39.50;29.60;;;;;;5075386;28;20036;-16
2022/07/02 10:43:56;;;;;;;10.50;3.50;;;39.70;30.30;;;;;;5075353;28;20033;-15
2022/07/02 10:46:25;;;;;;;6.82;2.80;;;39.80;29.60;;;;;;5075038;28;20422;-15
2022/07/02 10:48:57;;;;;;;11.20;3.67;;;39.90;29.90;;;;;;5074775;28;20047;-17
2022/07/02 10:51:29;;;;;;;9.27;3.28;;;39.90;27.50;;;;;;5075048;28;20089;-15
2022/07/02 10:54:00;;;;;;;7.82;3.58;;;39.90;28.60;;;;;;5075299;28;20035;-15
2022/07/02 10:56:43;;;;;;;7.95;3.30;;;40.10;28.60;;;;;;5075031;28;20031;-16
2022/07/02 10:59:21;;;;;;;;;;;39.80;28.70;;;;;;5075467;28;20029;-16
2022/07/02 11:01:47;;;;;;;8.80;3.28;;;39.90;29.10;;;;;;5074904;28;20426;-16
2022/07/02 11:04:20;;;;;;;5.55;3.05;;;40.20;29.10;;;;;;5074807;28;20128;-16
2022/07/02 11:06:48;;;;;;;8.07;3.00;;;40.30;28.10;;;;;;5075192;28;20074;-15
2022/07/02 11:09:14;;;;;;;9.32;3.60;;;40.60;28.90;;;;;;5074698;28;20036;-15
2022/07/02 11:11:39;;;;;;;7.78;2.83;;;40.90;28.50;;;;;;5073472;28;20042;-15
2022/07/02 11:14:10;;;;;;;10.95;3.20;;;41.20;28.00;;;;;;5074651;28;20032;-15
2022/07/02 11:16:47;;;;;;;9.02;2.97;;;41.50;26.70;;;;;;5074425;28;20032;-16
2022/07/02 11:19:20;;;;;;;6.80;3.50;;;41.60;27.30;;;;;;5074993;28;20071;-15
2022/07/02 11:21:47;;;;;;;11.10;3.28;;;41.80;26.90;;;;;;5074432;28;20024;-15
2022/07/02 11:24:22;;;;;;;6.55;3.22;;;41.90;27.00;;;;;;5074347;28;20036;-15
2022/07/02 11:26:49;;;;;;;7.25;3.00;;;42.10;26.60;;;;;;5074415;28;20048;-15
2022/07/02 11:29:16;;;;;;;8.45;3.15;;;41.90;26.70;;;;;;5074371;28;20475;-14
2022/07/02 11:31:47;;;;;;;5.90;3.10;;;42.00;27.60;;;;;;5074229;28;20039;-15
2022/07/02 11:34:21;;;;;;;6.65;3.10;;;42.20;27.30;;;;;;5073119;28;20022;-15
2022/07/02 11:36:47;;;;;;;6.45;2.83;;;42.70;27.10;;;;;;5074517;28;20047;-14
2022/07/02 11:39:19;;;;;;;9.52;3.00;;;42.80;27.30;;;;;;5074697;28;20047;-15
2022/07/02 11:41:46;;;;;;;8.10;3.08;;;43.00;26.10;;;;;;5074075;28;20039;-16
2022/07/02 11:44:15;;;;;;;9.50;3.15;;;43.20;26.40;;;;;;5074258;28;20078;-15
2022/07/02 11:46:42;;;;;;;5.25;2.95;;;43.30;26.00;;;;;;5074031;28;20124;-14
2022/07/02 11:49:23;;;;;;;7.25;2.78;;;43.40;25.80;;;;;;5074014;28;20055;-15
2022/07/02 11:51:51;;;;;;;4.70;2.90;;;43.70;25.70;;;;;;5074356;28;20044;-14
2022/07/02 11:54:18;;;;;;;8.02;3.10;;;43.80;25.40;;;;;;5073661;28;20048;-15
2022/07/02 11:56:46;;;;;;;6.43;2.78;;;44.10;25.40;;;;;;5074159;28;20524;-15
2022/07/02 11:59:14;;;;;;;6.22;2.70;;;44.30;25.40;;;;;;5074098;28;20086;-14
2022/07/02 12:01:42;;;;;;;6.78;3.00;;;44.20;25.20;;;;;;5073308;28;20028;-14
2022/07/02 12:04:13;;;;;;;7.97;2.88;;;43.90;25.30;;;;;;5073863;28;20369;-15
2022/07/02 12:06:42;;;;;;;7.97;3.00;;;43.70;25.70;;;;;;5073937;28;20068;-15
2022/07/02 12:09:11;;;;;;;7.97;3.25;;;43.60;25.70;;;;;;5073802;28;20036;-15
2022/07/02 12:11:39;;;;;;;7.15;3.05;;;43.70;25.50;;;;;;5073894;28;20016;-15
2022/07/02 12:14:07;;;;;;;3.72;2.38;;;43.80;25.20;;;;;;5073799;28;20036;-15
2022/07/02 12:16:34;;;;;;;6.93;3.05;;;43.40;25.80;;;;;;5073606;28;20056;-15
2022/07/02 12:19:04;;;;;;;7.95;2.92;;;43.20;25.90;;;;;;5073438;28;20115;-15
2022/07/02 12:21:52;;;;;;;6.38;2.97;;;43.30;26.10;;;;;;5073740;28;20027;-15
2022/07/02 12:24:30;;;;;;;7.93;2.70;;;43.60;25.90;;;;;;5073292;28;20033;-15
2022/07/02 12:26:59;;;;;;;7.95;3.35;;;44.00;25.40;;;;;;5073768;28;20055;-15
2022/07/02 12:29:58;;;;;;;7.90;3.25;;;44.20;25.40;;;;;;5073311;28;20047;-14
2022/07/02 12:32:31;;;;;;;6.93;3.13;;;43.70;25.60;;;;;;5073151;28;20491;-15
2022/07/02 12:35:02;;;;;;;10.40;3.03;;;43.60;25.40;;;;;;5073179;28;20387;-15
2022/07/02 12:37:40;;;;;;;7.35;2.88;;;43.60;25.90;;;;;;5073173;28;20029;-15
2022/07/02 12:40:16;;;;;;;8.10;3.13;;;43.70;24.20;;;;;;5073513;28;20033;-15
2022/07/02 12:42:54;;;;;;;8.25;2.83;;;43.50;25.20;;;;;;5073087;28;20496;-15
2022/07/02 12:45:28;;;;;;;6.22;2.95;;;43.40;25.80;;;;;;5073200;28;20463;-15
2022/07/02 12:48:01;;;;;;;9.18;2.70;;;43.20;24.90;;;;;;5074019;28;20021;-14
2022/07/02 12:50:32;;;;;;;9.68;2.83;;;43.10;25.40;;;;;;5072722;28;20106;-15
2022/07/02 12:53:07;;;;;;;7.70;3.13;;;43.50;25.30;;;;;;5073094;28;20132;-15